Terminal Aerodrome Forecast
Issued by NWS Memphis, TN

Current Version | Previous Version | Text Only | Print | Product List | Glossary On
Versions: 1 2 3 4 5 6 7 8 9 10 11 12 13 14
000
FTUS44 KMEG 301700 RRA
TAFMKL
TAF
KMKL 301741Z 3018/3118 23006KT P6SM SKC
     FM310400 03003KT P6SM BKN150
     FM310900 00000KT P6SM OVC120
     FM311500 22005KT P6SM FEW050 OVC120=

USA.gov is the U.S. government's official web portal to all federal, state and local government web resources and services.